Time;durP1;ratioP1;P1;durP2;ratioP2;P2;SDS_P1;SDS_P2;PMS_P1;PMS_P2;Temp;Humidity;BMP_temperature;BMP_pressure;BME280_temperature;BME280_humidity;BME280_pressure;Samples;Min_cycle;Max_cycle;Signal;HPM_P1;HPM_P2
2023/11/14 00:01:55;;;;;;;25.35;11.50;;;16.70;90.80;;;;;;5053106;28;20087;-80
2023/11/14 00:04:21;;;;;;;23.15;10.77;;;16.80;90.80;;;;;;5052612;28;20385;-79
2023/11/14 00:06:47;;;;;;;25.63;12.68;;;16.80;90.80;;;;;;5052464;28;20037;-79
2023/11/14 00:09:13;;;;;;;19.23;11.13;;;16.80;90.80;;;;;;5055607;28;20032;-80
2023/11/14 00:11:40;;;;;;;31.30;11.10;;;16.80;90.80;;;;;;5055973;28;20037;-80
2023/11/14 00:14:06;;;;;;;24.20;11.18;;;16.80;90.90;;;;;;5065068;28;20052;-80
2023/11/14 00:16:32;;;;;;;26.77;10.93;;;16.80;90.90;;;;;;5058383;28;20021;-80
2023/11/14 00:18:58;;;;;;;23.45;10.32;;;16.80;90.90;;;;;;5056283;28;20040;-80
2023/11/14 00:21:23;;;;;;;29.50;11.25;;;16.80;90.90;;;;;;5055943;28;20033;-79
2023/11/14 00:23:52;;;;;;;23.35;10.85;;;16.80;91.00;;;;;;5052512;28;20053;-81
2023/11/14 00:26:18;;;;;;;22.98;11.07;;;16.80;91.00;;;;;;5035850;28;20064;-79
2023/11/14 00:28:44;;;;;;;28.88;11.60;;;16.70;90.90;;;;;;5035197;28;20127;-79
2023/11/14 00:31:10;;;;;;;27.70;11.60;;;16.80;91.00;;;;;;5036757;28;20066;-79
2023/11/14 00:33:36;;;;;;;24.02;10.32;;;16.80;91.00;;;;;;5035600;28;20064;-80
2023/11/14 00:36:02;;;;;;;23.00;10.40;;;16.80;91.00;;;;;;5035524;28;20108;-80
2023/11/14 00:38:27;;;;;;;22.40;10.50;;;16.80;91.00;;;;;;5035806;28;20091;-79
2023/11/14 00:40:53;;;;;;;25.67;9.82;;;16.80;91.00;;;;;;5035471;28;20033;-80
2023/11/14 00:43:19;;;;;;;23.40;10.25;;;16.80;91.00;;;;;;5035218;28;20080;-79
2023/11/14 00:45:45;;;;;;;19.70;9.05;;;16.80;91.00;;;;;;5035528;28;20052;-79
2023/11/14 00:48:12;;;;;;;20.63;8.82;;;16.80;91.10;;;;;;5035673;28;20030;-80
2023/11/14 00:50:37;;;;;;;26.48;9.43;;;16.80;91.00;;;;;;5035833;28;20044;-80
2023/11/14 00:53:03;;;;;;;21.77;9.77;;;16.80;91.10;;;;;;5035677;28;20037;-78
2023/11/14 00:55:29;;;;;;;25.52;9.23;;;16.80;91.10;;;;;;5018054;28;20034;-79
2023/11/14 00:57:55;;;;;;;21.85;9.65;;;16.80;91.10;;;;;;5035162;28;20037;-80
2023/11/14 01:00:21;;;;;;;22.10;9.45;;;16.80;91.00;;;;;;5035200;28;20061;-80
2023/11/14 01:02:46;;;;;;;23.13;8.98;;;16.80;91.10;;;;;;5035049;28;20413;-81
2023/11/14 01:05:12;;;;;;;20.42;8.48;;;16.80;91.10;;;;;;5035249;28;20026;-80
2023/11/14 01:07:38;;;;;;;22.23;9.27;;;16.80;91.20;;;;;;5035536;28;20141;-80
2023/11/14 01:10:05;;;;;;;20.85;8.48;;;16.80;91.10;;;;;;5034840;28;20493;-79
2023/11/14 01:12:32;;;;;;;22.73;8.20;;;16.80;91.10;;;;;;5035138;28;20038;-79
2023/11/14 01:14:58;;;;;;;27.38;9.07;;;16.80;91.20;;;;;;5034987;28;20036;-79
2023/11/14 01:17:24;;;;;;;17.17;7.82;;;16.80;91.10;;;;;;5034636;28;20037;-79
2023/11/14 01:19:50;;;;;;;19.67;8.25;;;16.80;91.20;;;;;;5034041;28;20029;-79
2023/11/14 01:22:16;;;;;;;19.42;7.60;;;16.80;91.20;;;;;;5034762;28;20046;-79
2023/11/14 01:24:41;;;;;;;21.40;8.50;;;16.90;91.20;;;;;;5016599;28;20132;-79
2023/11/14 01:27:07;;;;;;;19.85;7.70;;;16.90;91.30;;;;;;5035043;28;20392;-79
2023/11/14 01:29:33;;;;;;;19.73;8.07;;;16.90;91.20;;;;;;5034668;28;20029;-80
2023/11/14 01:31:59;;;;;;;19.98;7.07;;;16.90;91.20;;;;;;5016542;28;20500;-80
2023/11/14 01:34:25;;;;;;;15.18;7.05;;;16.90;91.20;;;;;;5034737;28;20049;-80
2023/11/14 01:36:56;;;;;;;17.35;6.82;;;16.90;91.20;;;;;;5034471;28;20145;-79
2023/11/14 01:39:23;;;;;;;15.77;7.22;;;16.90;91.20;;;;;;5034188;28;20083;-80
2023/11/14 01:41:50;;;;;;;19.80;7.07;;;16.80;91.20;;;;;;5016232;28;20033;-80
2023/11/14 01:44:16;;;;;;;19.15;8.02;;;16.80;91.30;;;;;;5034336;28;20061;-79
2023/11/14 01:46:42;;;;;;;23.13;8.38;;;16.80;91.30;;;;;;5034125;28;20401;-81
2023/11/14 01:49:08;;;;;;;20.38;7.55;;;16.80;91.40;;;;;;5016118;28;20030;-79
2023/11/14 01:51:35;;;;;;;18.50;7.90;;;16.80;91.40;;;;;;5033941;28;20638;-79
2023/11/14 01:54:01;;;;;;;19.73;7.38;;;16.80;91.50;;;;;;5015957;28;20069;-79
2023/11/14 01:56:28;;;;;;;16.55;6.97;;;16.80;91.40;;;;;;5016197;28;20061;-79
2023/11/14 01:58:55;;;;;;;18.23;6.95;;;16.80;91.50;;;;;;5034042;28;20512;-78
2023/11/14 02:01:22;;;;;;;16.42;6.63;;;16.80;91.70;;;;;;5033961;28;20466;-80
2023/11/14 02:03:48;;;;;;;16.02;7.18;;;16.80;91.50;;;;;;5033878;28;20056;-80
2023/11/14 02:06:14;;;;;;;18.00;7.50;;;16.80;91.40;;;;;;5033451;28;20022;-80
2023/11/14 02:08:40;;;;;;;18.75;7.15;;;16.80;91.40;;;;;;5033518;28;20504;-80
2023/11/14 02:11:06;;;;;;;17.70;6.78;;;16.90;91.50;;;;;;5046853;28;20093;-80
2023/11/14 02:13:33;;;;;;;15.05;6.45;;;16.80;91.50;;;;;;5050703;28;20033;-79
2023/11/14 02:15:59;;;;;;;18.08;7.07;;;16.90;91.80;;;;;;5052170;28;20486;-78
2023/11/14 02:18:25;;;;;;;16.13;6.72;;;16.90;91.40;;;;;;5057620;28;20044;-73
2023/11/14 02:20:51;;;;;;;18.77;6.93;;;16.90;91.40;;;;;;5045519;28;20034;-79
2023/11/14 02:23:17;;;;;;;18.63;8.05;;;16.90;91.40;;;;;;5033875;28;20037;-79
2023/11/14 02:25:45;;;;;;;17.08;7.50;;;16.90;91.50;;;;;;5052460;28;20068;-79
2023/11/14 02:28:11;;;;;;;19.42;7.05;;;16.90;91.50;;;;;;5053884;28;20060;-78
2023/11/14 02:30:38;;;;;;;19.58;7.22;;;16.90;91.40;;;;;;5052320;28;20029;-79
2023/11/14 02:33:07;;;;;;;19.40;7.05;;;16.90;91.50;;;;;;5053120;28;20029;-79
2023/11/14 02:35:33;;;;;;;15.73;7.22;;;16.90;91.50;;;;;;5053462;28;20082;-78
2023/11/14 02:37:59;;;;;;;16.20;6.60;;;16.80;91.40;;;;;;5053338;28;20055;-79
2023/11/14 02:40:25;;;;;;;18.30;7.13;;;16.80;91.40;;;;;;5053031;28;20036;-79
2023/11/14 02:42:53;;;;;;;16.70;6.85;;;16.80;91.50;;;;;;5052804;28;20026;-78
2023/11/14 02:45:19;;;;;;;18.52;6.13;;;16.80;91.40;;;;;;5035205;28;20128;-79
2023/11/14 02:47:45;;;;;;;15.00;6.03;;;16.80;91.60;;;;;;5053423;28;20040;-79
2023/11/14 02:50:36;;;;;;;16.00;6.50;;;16.80;91.60;;;;;;5053421;28;20033;-80
2023/11/14 02:53:03;;;;;;;19.90;6.47;;;16.80;91.70;;;;;;5053078;28;20047;-80
2023/11/14 02:55:29;;;;;;;17.92;5.55;;;16.80;91.70;;;;;;5035015;28;20037;-79
2023/11/14 02:57:55;;;;;;;13.93;5.65;;;16.80;91.70;;;;;;5052837;28;20595;-79
2023/11/14 03:00:21;;;;;;;15.98;6.15;;;16.80;91.70;;;;;;5052641;28;20064;-80
2023/11/14 03:02:48;;;;;;;18.10;6.88;;;16.90;91.80;;;;;;5052205;28;20037;-79
2023/11/14 03:05:14;;;;;;;15.45;6.65;;;16.90;91.80;;;;;;5052501;28;20051;-79
2023/11/14 03:07:40;;;;;;;20.55;6.82;;;16.90;91.80;;;;;;5053533;28;20373;-79
2023/11/14 03:10:07;;;;;;;17.60;7.00;;;16.90;91.70;;;;;;5038676;28;20037;-79
2023/11/14 03:12:32;;;;;;;15.02;6.75;;;16.90;91.60;;;;;;5052839;28;20484;-79
2023/11/14 03:14:58;;;;;;;18.02;7.30;;;16.90;91.60;;;;;;5052505;28;20025;-79
2023/11/14 03:17:24;;;;;;;16.63;7.45;;;16.90;91.60;;;;;;5052103;28;20060;-79
2023/11/14 03:19:50;;;;;;;17.23;5.97;;;16.90;91.60;;;;;;5034158;28;20036;-79
2023/11/14 03:22:16;;;;;;;17.88;7.50;;;16.90;91.60;;;;;;5051931;28;20488;-80
2023/11/14 03:24:42;;;;;;;22.17;7.55;;;16.90;91.60;;;;;;5051909;28;20053;-79
2023/11/14 03:27:07;;;;;;;13.52;5.78;;;16.90;91.60;;;;;;5051831;28;20033;-79
2023/11/14 03:29:33;;;;;;;15.73;6.60;;;16.90;91.70;;;;;;5052226;28;20037;-80
2023/11/14 03:31:59;;;;;;;16.88;6.63;;;17.00;91.70;;;;;;5052436;28;20029;-79
2023/11/14 03:34:25;;;;;;;15.23;7.43;;;16.90;91.70;;;;;;5052485;28;20041;-79
2023/11/14 03:36:56;;;;;;;20.70;7.50;;;16.90;91.70;;;;;;5034113;28;20504;-79
2023/11/14 03:39:22;;;;;;;16.35;7.20;;;16.90;91.70;;;;;;5052082;28;20131;-79
2023/11/14 03:41:48;;;;;;;17.63;6.97;;;16.90;91.70;;;;;;5053498;28;20472;-80
2023/11/14 03:44:14;;;;;;;13.15;6.15;;;16.90;91.80;;;;;;5056316;28;20038;-79
2023/11/14 03:46:41;;;;;;;17.55;7.05;;;17.00;91.90;;;;;;5055948;28;20037;-79
2023/11/14 03:49:07;;;;;;;18.13;6.57;;;17.00;91.90;;;;;;5056105;28;20053;-79
2023/11/14 03:51:33;;;;;;;17.33;6.80;;;17.00;92.00;;;;;;5056131;28;20165;-79
2023/11/14 03:53:59;;;;;;;15.57;7.00;;;17.00;92.00;;;;;;5056077;28;20497;-79
2023/11/14 03:56:25;;;;;;;17.95;6.55;;;17.00;92.00;;;;;;5055804;28;20104;-78
2023/11/14 03:58:50;;;;;;;17.08;6.10;;;17.00;92.00;;;;;;5055975;28;20060;-79
2023/11/14 04:01:16;;;;;;;17.52;6.28;;;17.00;92.00;;;;;;5055774;28;20083;-79
2023/11/14 04:03:43;;;;;;;15.13;6.30;;;17.00;92.00;;;;;;5055918;28;20080;-80
2023/11/14 04:06:12;;;;;;;14.18;5.50;;;17.00;92.00;;;;;;5055996;28;20041;-79
2023/11/14 04:08:38;;;;;;;14.45;5.93;;;17.00;92.00;;;;;;5055848;28;20444;-79
2023/11/14 04:11:06;;;;;;;20.80;6.65;;;17.00;92.00;;;;;;5056024;28;20033;-79
2023/11/14 04:13:33;;;;;;;14.35;6.40;;;17.00;92.00;;;;;;5055600;28;20053;-80
2023/11/14 04:15:59;;;;;;;21.35;6.38;;;17.00;92.00;;;;;;5055962;28;20029;-81
2023/11/14 04:18:25;;;;;;;14.38;5.22;;;17.00;92.10;;;;;;5055664;28;20025;-78
2023/11/14 04:20:51;;;;;;;16.15;6.10;;;17.00;92.10;;;;;;5055533;28;20059;-80
2023/11/14 04:23:16;;;;;;;14.32;5.45;;;17.10;92.10;;;;;;5055140;28;20086;-80
2023/11/14 04:25:42;;;;;;;12.80;5.60;;;17.10;92.10;;;;;;5055124;28;20520;-80
2023/11/14 04:28:08;;;;;;;14.95;5.50;;;17.10;92.10;;;;;;5055391;28;20337;-81
2023/11/14 04:30:34;;;;;;;13.68;5.70;;;17.10;92.20;;;;;;5055710;28;20099;-80
2023/11/14 04:33:00;;;;;;;15.63;5.90;;;17.10;92.10;;;;;;5037546;28;20037;-80
2023/11/14 04:35:26;;;;;;;16.88;5.40;;;17.10;92.20;;;;;;5055142;28;20032;-79
2023/11/14 04:37:55;;;;;;;14.75;5.22;;;17.10;92.20;;;;;;5055352;28;20025;-79
2023/11/14 04:40:21;;;;;;;14.18;5.20;;;17.10;92.40;;;;;;5055119;28;20032;-79
2023/11/14 04:42:49;;;;;;;16.33;5.43;;;17.20;92.50;;;;;;5055061;28;20094;-79
2023/11/14 04:45:15;;;;;;;14.73;4.63;;;17.20;92.60;;;;;;5055227;28;20037;-78
2023/11/14 04:47:41;;;;;;;15.55;5.35;;;17.20;92.60;;;;;;5037171;28;20120;-79
2023/11/14 04:50:07;;;;;;;14.55;5.18;;;17.30;92.70;;;;;;5055433;28;20052;-79
2023/11/14 04:52:33;;;;;;;12.43;5.00;;;17.30;92.70;;;;;;5057028;28;20057;-80
2023/11/14 04:54:59;;;;;;;10.02;4.03;;;17.30;92.80;;;;;;5054961;28;20040;-79
2023/11/14 04:57:26;;;;;;;11.23;3.97;;;17.40;92.90;;;;;;5072950;28;20063;-79
2023/11/14 04:59:52;;;;;;;14.82;4.57;;;17.40;93.00;;;;;;5079617;28;20029;-80
2023/11/14 05:02:17;;;;;;;16.30;5.03;;;17.40;93.00;;;;;;5058203;28;20059;-79
2023/11/14 05:04:43;;;;;;;10.80;3.53;;;17.40;93.30;;;;;;5056126;28;20525;-80
2023/11/14 05:07:10;;;;;;;15.80;3.72;;;17.50;93.10;;;;;;5054500;28;20068;-79
2023/11/14 05:09:36;;;;;;;13.18;3.65;;;17.50;93.10;;;;;;5054717;28;20025;-80
2023/11/14 05:12:02;;;;;;;11.63;3.33;;;17.50;93.30;;;;;;5054644;28;20507;-80
2023/11/14 05:14:27;;;;;;;15.25;3.35;;;17.50;93.20;;;;;;5054636;28;20111;-79
2023/11/14 05:16:56;;;;;;;16.15;3.90;;;17.60;93.30;;;;;;5054357;28;20159;-80
2023/11/14 05:19:23;;;;;;;9.15;3.47;;;17.60;93.40;;;;;;5054449;28;20029;-79
2023/11/14 05:21:50;;;;;;;14.10;4.03;;;17.70;93.50;;;;;;5054717;28;20025;-80
2023/11/14 05:24:16;;;;;;;14.25;4.82;;;17.70;93.60;;;;;;5054176;28;20475;-78
2023/11/14 05:26:42;;;;;;;8.10;3.10;;;17.70;93.60;;;;;;5054483;28;20029;-78
2023/11/14 05:29:08;;;;;;;12.45;3.83;;;17.70;93.60;;;;;;5054266;28;20037;-79
2023/11/14 05:31:34;;;;;;;15.77;4.03;;;17.70;93.60;;;;;;5054721;28;20099;-79
2023/11/14 05:34:00;;;;;;;17.27;4.13;;;17.70;93.70;;;;;;5054481;28;20032;-80
2023/11/14 05:36:26;;;;;;;16.10;3.65;;;17.70;93.70;;;;;;5054181;28;20090;-81
2023/11/14 05:38:52;;;;;;;19.67;5.57;;;17.70;93.70;;;;;;5053990;28;20029;-78
2023/11/14 05:41:17;;;;;;;15.50;4.50;;;17.70;93.80;;;;;;5054067;28;20037;-80
2023/11/14 05:43:44;;;;;;;16.42;4.90;;;17.70;93.80;;;;;;5054095;28;20106;-80
2023/11/14 05:46:10;;;;;;;10.10;4.50;;;17.60;93.90;;;;;;5053978;28;20025;-79
2023/11/14 05:48:36;;;;;;;12.00;4.45;;;17.60;93.90;;;;;;5054128;28;20501;-79
2023/11/14 05:51:03;;;;;;;16.55;4.55;;;17.60;93.80;;;;;;5054094;28;20036;-80
2023/11/14 05:53:29;;;;;;;13.20;5.55;;;17.60;93.90;;;;;;5054137;28;20029;-80
2023/11/14 05:55:56;;;;;;;17.45;7.45;;;17.60;93.90;;;;;;5054001;28;20033;-79
2023/11/14 05:58:22;;;;;;;14.82;6.18;;;17.60;93.80;;;;;;5053710;28;20044;-79
2023/11/14 06:00:49;;;;;;;17.08;5.95;;;17.50;93.70;;;;;;5054120;28;20036;-80
2023/11/14 06:03:16;;;;;;;15.77;6.18;;;17.50;93.70;;;;;;5053914;28;20049;-79
2023/11/14 06:05:42;;;;;;;17.55;7.60;;;17.50;93.70;;;;;;5054393;28;20037;-80
2023/11/14 06:08:08;;;;;;;19.25;6.78;;;17.40;93.60;;;;;;5053881;28;20493;-80
2023/11/14 06:10:35;;;;;;;18.15;6.75;;;17.40;93.60;;;;;;5035756;28;20033;-81
2023/11/14 06:13:02;;;;;;;15.90;6.30;;;17.40;93.70;;;;;;5053459;28;20037;-80
2023/11/14 06:15:28;;;;;;;14.75;6.05;;;17.40;93.60;;;;;;5053638;28;20493;-79
2023/11/14 06:17:54;;;;;;;17.02;6.20;;;17.40;93.60;;;;;;5035384;28;20111;-79
2023/11/14 06:20:22;;;;;;;19.35;7.85;;;17.40;93.50;;;;;;5053312;28;20112;-80
2023/11/14 06:22:49;;;;;;;15.10;6.20;;;17.40;93.60;;;;;;5053210;28;20025;-80
2023/11/14 06:25:15;;;;;;;19.08;5.93;;;17.40;93.60;;;;;;5053014;28;20049;-81
2023/11/14 06:27:41;;;;;;;20.65;6.78;;;17.50;93.60;;;;;;5053511;28;20025;-80
2023/11/14 06:30:07;;;;;;;18.83;6.72;;;17.50;93.50;;;;;;5053458;28;20211;-80
2023/11/14 06:32:33;;;;;;;12.75;5.55;;;17.50;93.50;;;;;;5053580;28;20025;-80
2023/11/14 06:34:59;;;;;;;17.15;6.47;;;17.40;93.40;;;;;;5053324;28;20036;-79
2023/11/14 06:37:25;;;;;;;21.33;7.22;;;17.40;93.40;;;;;;5052803;28;20397;-81
2023/11/14 06:39:51;;;;;;;17.58;6.45;;;17.50;93.40;;;;;;5052966;28;20078;-80
2023/11/14 06:42:17;;;;;;;16.52;6.55;;;17.50;93.30;;;;;;5033671;28;20068;-80
2023/11/14 06:44:44;;;;;;;20.90;6.70;;;17.50;93.30;;;;;;5033310;28;20041;-79
2023/11/14 06:47:10;;;;;;;17.17;6.95;;;17.50;93.30;;;;;;5033353;28;20037;-81
2023/11/14 06:49:35;;;;;;;15.55;7.18;;;17.50;93.30;;;;;;5024673;28;20460;-78
2023/11/14 06:52:01;;;;;;;20.80;6.85;;;17.40;93.20;;;;;;5029054;28;20076;-77
2023/11/14 06:54:27;;;;;;;18.23;6.13;;;17.50;93.30;;;;;;5033272;28;20485;-79
2023/11/14 06:56:53;;;;;;;16.75;6.38;;;17.50;93.10;;;;;;5027794;28;20034;-80
2023/11/14 06:59:20;;;;;;;14.80;6.25;;;17.50;93.10;;;;;;5009202;28;20040;-86
2023/11/14 07:01:52;;;;;;;24.45;6.47;;;17.50;93.10;;;;;;5000828;28;20057;-77
2023/11/14 07:04:18;;;;;;;19.80;7.32;;;17.50;93.00;;;;;;5030940;28;20050;-80
2023/11/14 07:06:44;;;;;;;19.80;7.15;;;17.50;93.00;;;;;;5026878;28;20096;-81
2023/11/14 07:09:11;;;;;;;23.77;7.85;;;17.50;93.00;;;;;;5034054;28;20037;-80
2023/11/14 07:11:37;;;;;;;21.98;7.35;;;17.60;93.00;;;;;;5015799;28;20036;-86
2023/11/14 07:14:04;;;;;;;21.38;7.10;;;17.60;92.90;;;;;;5014175;28;20038;-85
2023/11/14 07:16:29;;;;;;;21.83;7.43;;;17.60;92.70;;;;;;5013435;28;20137;-86
2023/11/14 07:18:56;;;;;;;19.27;7.85;;;17.70;92.80;;;;;;5013979;28;20088;-83
2023/11/14 07:21:22;;;;;;;21.98;6.78;;;17.70;92.70;;;;;;5011540;28;20049;-85
2023/11/14 07:23:47;;;;;;;19.95;7.07;;;17.70;92.60;;;;;;5037941;28;20049;-88
2023/11/14 07:26:13;;;;;;;25.42;7.50;;;17.80;92.60;;;;;;5027356;28;20041;-86
2023/11/14 07:28:41;;;;;;;23.98;7.45;;;17.80;92.60;;;;;;5022982;28;20044;-86
2023/11/14 07:31:07;;;;;;;20.80;6.95;;;17.80;92.50;;;;;;5020667;28;20030;-86
2023/11/14 07:33:32;;;;;;;18.67;7.22;;;17.80;92.50;;;;;;5052020;28;20026;-84
2023/11/14 07:35:58;;;;;;;23.00;7.50;;;17.90;92.40;;;;;;5057290;28;20056;-83
2023/11/14 07:38:24;;;;;;;22.77;8.05;;;17.90;92.30;;;;;;5057460;28;20076;-83
2023/11/14 07:40:50;;;;;;;22.38;8.18;;;18.00;92.30;;;;;;5056970;28;20042;-80
2023/11/14 07:43:17;;;;;;;21.27;8.18;;;18.00;92.20;;;;;;5036507;28;20037;-85
2023/11/14 07:45:43;;;;;;;23.88;8.05;;;18.10;92.10;;;;;;5033530;28;20029;-85
2023/11/14 07:48:09;;;;;;;23.70;7.43;;;18.10;92.00;;;;;;5032996;28;20461;-82
2023/11/14 07:50:35;;;;;;;20.75;7.70;;;18.20;92.00;;;;;;5032718;28;20083;-85
2023/11/14 07:53:00;;;;;;;28.13;9.20;;;18.20;91.90;;;;;;5032516;28;20038;-85
2023/11/14 07:55:28;;;;;;;26.55;9.40;;;18.20;91.90;;;;;;5031490;28;20038;-80
2023/11/14 07:57:55;;;;;;;29.38;8.75;;;18.20;91.90;;;;;;5031901;28;20041;-84
2023/11/14 08:00:23;;;;;;;33.35;9.30;;;18.20;91.70;;;;;;5031539;28;20212;-84
2023/11/14 08:02:49;;;;;;;25.08;8.70;;;18.20;91.80;;;;;;5032594;28;20040;-85
2023/11/14 08:05:15;;;;;;;26.20;9.32;;;18.20;91.80;;;;;;5033508;28;20116;-84
2023/11/14 08:07:41;;;;;;;29.42;8.70;;;18.30;91.80;;;;;;5018929;28;20137;-80
2023/11/14 08:10:07;;;;;;;23.13;8.48;;;18.30;91.80;;;;;;5035133;28;20053;-82
2023/11/14 08:12:33;;;;;;;25.92;9.15;;;18.40;91.70;;;;;;5032709;28;20033;-80
2023/11/14 08:14:59;;;;;;;22.10;8.57;;;18.40;91.60;;;;;;5032135;28;20029;-79
2023/11/14 08:17:24;;;;;;;29.00;8.90;;;18.50;91.60;;;;;;5032275;28;20037;-80
2023/11/14 08:19:50;;;;;;;22.42;9.10;;;18.50;91.40;;;;;;5032028;28;20033;-81
2023/11/14 08:22:16;;;;;;;29.13;9.38;;;18.60;91.40;;;;;;5032337;28;20033;-82
2023/11/14 08:24:41;;;;;;;25.65;8.88;;;18.70;91.30;;;;;;5024766;28;20492;-81
2023/11/14 08:27:08;;;;;;;20.85;8.88;;;18.70;91.30;;;;;;5052501;28;20401;-81
2023/11/14 08:29:36;;;;;;;21.50;9.55;;;18.80;91.10;;;;;;5054754;28;20115;-81
2023/11/14 08:32:06;;;;;;;28.80;10.07;;;18.90;91.00;;;;;;5056258;28;20033;-81
2023/11/14 08:34:31;;;;;;;23.45;9.90;;;19.00;91.00;;;;;;5056025;28;20037;-81
2023/11/14 08:36:57;;;;;;;23.75;9.65;;;19.10;90.80;;;;;;5056102;28;20064;-81
2023/11/14 08:39:23;;;;;;;19.75;8.25;;;19.10;90.70;;;;;;5038520;28;20040;-80
2023/11/14 08:41:48;;;;;;;19.75;7.85;;;19.20;90.70;;;;;;5056576;28;20029;-81
2023/11/14 08:44:14;;;;;;;20.73;8.50;;;19.30;90.70;;;;;;5055749;28;20120;-80
2023/11/14 08:46:40;;;;;;;20.15;6.70;;;19.30;90.80;;;;;;5055390;28;20040;-80
2023/11/14 08:49:07;;;;;;;20.42;5.57;;;19.40;90.80;;;;;;5055629;28;20473;-79
2023/11/14 08:51:35;;;;;;;20.08;5.82;;;19.50;90.90;;;;;;5055378;28;20450;-80
2023/11/14 08:54:01;;;;;;;18.27;5.60;;;19.50;90.90;;;;;;5055490;28;20037;-79
2023/11/14 08:56:29;;;;;;;20.40;6.07;;;19.60;91.10;;;;;;5037339;28;20054;-79
2023/11/14 08:58:57;;;;;;;17.88;4.80;;;19.70;91.20;;;;;;5055172;28;20384;-81
2023/11/14 09:01:26;;;;;;;19.13;4.78;;;19.90;91.40;;;;;;5055150;28;20033;-80
2023/11/14 09:03:52;;;;;;;18.85;4.65;;;20.10;91.30;;;;;;5055139;28;20049;-81
2023/11/14 09:06:18;;;;;;;18.05;4.55;;;20.20;91.20;;;;;;5055340;28;20040;-80
2023/11/14 09:08:45;;;;;;;17.15;4.85;;;20.40;91.10;;;;;;5055064;28;20041;-81
2023/11/14 09:11:11;;;;;;;16.95;4.18;;;20.60;91.00;;;;;;5055143;28;20029;-80
2023/11/14 09:13:37;;;;;;;19.25;4.60;;;20.80;90.90;;;;;;5054773;28;20063;-79
2023/11/14 09:16:03;;;;;;;18.80;4.43;;;20.90;90.90;;;;;;5054939;28;20029;-80
2023/11/14 09:18:28;;;;;;;18.77;4.40;;;21.00;90.70;;;;;;5055001;28;20040;-80
2023/11/14 09:20:55;;;;;;;18.10;4.80;;;21.10;90.70;;;;;;5055174;28;20485;-80
2023/11/14 09:23:21;;;;;;;21.75;4.82;;;21.20;90.60;;;;;;5054540;28;20421;-81
2023/11/14 09:25:47;;;;;;;12.45;4.10;;;21.30;90.60;;;;;;5054655;28;20469;-80
2023/11/14 09:28:14;;;;;;;17.92;4.15;;;21.40;90.50;;;;;;5054406;28;20075;-79
2023/11/14 09:30:39;;;;;;;14.65;4.15;;;21.40;90.40;;;;;;5054967;28;20034;-79
2023/11/14 09:33:05;;;;;;;12.93;3.97;;;21.50;90.40;;;;;;5054367;28;20033;-80
2023/11/14 09:35:31;;;;;;;17.63;4.60;;;21.50;90.40;;;;;;5037113;28;20071;-81
2023/11/14 09:37:57;;;;;;;19.38;4.15;;;21.50;90.30;;;;;;5054492;28;20423;-80
2023/11/14 09:40:25;;;;;;;20.17;4.78;;;21.50;90.20;;;;;;5053942;28;20064;-81
2023/11/14 09:42:51;;;;;;;14.07;3.85;;;21.60;90.20;;;;;;5054216;28;20464;-81
2023/11/14 09:45:18;;;;;;;15.02;3.67;;;21.70;90.00;;;;;;5054670;28;20059;-80
2023/11/14 09:47:45;;;;;;;16.10;4.50;;;21.70;89.90;;;;;;5054622;28;20091;-81
2023/11/14 09:50:11;;;;;;;16.45;4.43;;;21.70;89.90;;;;;;5054891;28;20040;-82
2023/11/14 09:52:37;;;;;;;15.90;4.63;;;21.70;90.00;;;;;;5037111;28;20057;-81
2023/11/14 09:55:05;;;;;;;20.10;4.57;;;21.70;90.00;;;;;;5054230;28;20037;-81
2023/11/14 09:57:32;;;;;;;12.55;4.05;;;21.80;89.80;;;;;;5054451;28;20044;-80
2023/11/14 09:59:59;;;;;;;15.95;4.38;;;21.80;89.40;;;;;;5054897;28;20037;-82
2023/11/14 10:02:26;;;;;;;17.80;4.95;;;21.90;89.00;;;;;;5036620;28;20396;-81
2023/11/14 10:04:51;;;;;;;23.65;4.75;;;22.00;89.10;;;;;;5054607;28;20067;-81
2023/11/14 10:07:20;;;;;;;16.95;4.95;;;22.00;88.90;;;;;;5054839;28;20473;-82
2023/11/14 10:09:47;;;;;;;14.98;4.00;;;22.10;88.70;;;;;;5036392;28;20361;-81
2023/11/14 10:12:31;;;;;;;16.30;4.85;;;22.10;88.70;;;;;;5054687;28;20108;-83
2023/11/14 10:14:56;;;;;;;;;;;22.00;88.70;;;;;;5062872;28;20060;-81
2023/11/14 10:17:26;;;;;;;17.88;4.40;;;22.00;88.50;;;;;;5070996;28;19905;-80
2023/11/14 10:19:59;;;;;;;17.13;3.90;;;21.90;88.60;;;;;;5053974;28;20117;-80
2023/11/14 10:22:27;;;;;;;15.73;4.50;;;21.90;88.50;;;;;;5055509;28;20040;-82
2023/11/14 10:24:53;;;;;;;17.45;5.28;;;21.90;88.40;;;;;;5073217;28;20068;-80
2023/11/14 10:27:26;;;;;;;15.80;3.95;;;21.80;88.50;;;;;;5045881;28;20452;-81
2023/11/14 10:29:53;;;;;;;;;;;21.80;88.30;;;;;;5054311;28;20036;-81
2023/11/14 10:32:19;;;;;;;17.23;4.30;;;21.80;88.30;;;;;;5053975;28;19905;-80
2023/11/14 10:34:45;;;;;;;17.70;4.07;;;21.80;88.40;;;;;;5053188;28;20021;-81
2023/11/14 10:37:11;;;;;;;18.92;4.47;;;21.80;88.40;;;;;;5053370;28;20032;-82
2023/11/14 10:39:52;;;;;;;11.20;4.00;;;21.80;88.30;;;;;;5053916;28;20021;-80
2023/11/14 10:42:17;;;;;;;16.67;3.83;;;21.80;88.10;;;;;;5053106;28;20037;-80
2023/11/14 10:45:07;;;;;;;15.45;4.57;;;21.90;88.10;;;;;;5035381;28;20047;-81
2023/11/14 10:47:40;;;;;;;18.05;3.85;;;22.00;88.30;;;;;;5035022;28;20036;-80
2023/11/14 10:50:27;;;;;;;16.08;3.65;;;22.00;87.70;;;;;;5052996;28;20065;-81
2023/11/14 10:52:54;;;;;;;18.33;4.05;;;22.20;87.40;;;;;;5051964;28;20037;-81
2023/11/14 10:55:24;;;;;;;15.43;4.05;;;22.30;86.90;;;;;;5053265;28;20519;-80
2023/11/14 10:57:51;;;;;;;17.13;3.67;;;22.30;86.70;;;;;;5053436;28;20393;-83
2023/11/14 11:00:18;;;;;;;14.23;3.95;;;22.30;86.50;;;;;;5035414;28;20116;-81
2023/11/14 11:02:45;;;;;;;15.70;3.78;;;22.20;86.70;;;;;;5053904;28;20048;-82
2023/11/14 11:05:14;;;;;;;15.32;3.95;;;22.10;86.90;;;;;;5035504;28;20044;-82
2023/11/14 11:07:40;;;;;;;13.70;4.20;;;22.10;87.10;;;;;;5053164;28;20350;-81
2023/11/14 11:10:07;;;;;;;16.55;4.38;;;22.00;87.00;;;;;;5034873;28;20409;-80
2023/11/14 11:12:35;;;;;;;23.40;4.75;;;22.00;87.20;;;;;;5052913;28;20036;-77
2023/11/14 11:15:05;;;;;;;22.48;5.55;;;22.00;87.10;;;;;;5052551;28;20049;-79
2023/11/14 11:18:00;;;;;;;18.70;5.18;;;22.00;87.20;;;;;;5052709;28;20473;-80
2023/11/14 11:20:30;;;;;;;16.98;4.65;;;22.00;87.40;;;;;;5051057;28;20033;-79
2023/11/14 11:23:02;;;;;;;18.05;4.78;;;22.00;87.00;;;;;;5052675;28;20048;-78
2023/11/14 11:25:29;;;;;;;18.97;4.60;;;22.10;86.60;;;;;;5052432;28;20132;-79
2023/11/14 11:27:56;;;;;;;16.15;4.07;;;22.10;86.40;;;;;;5052204;28;20278;-76
2023/11/14 11:30:23;;;;;;;22.13;4.35;;;22.10;86.20;;;;;;5052465;28;20052;-79
2023/11/14 11:32:55;;;;;;;16.95;4.90;;;22.20;86.00;;;;;;5052839;28;20120;-81
2023/11/14 11:35:25;;;;;;;17.52;4.70;;;22.20;86.20;;;;;;5052463;28;20067;-82
2023/11/14 11:37:57;;;;;;;16.98;4.53;;;22.20;88.20;;;;;;5053168;28;20116;-79
2023/11/14 11:40:28;;;;;;;18.30;4.95;;;22.20;86.30;;;;;;5052441;28;20026;-77
2023/11/14 11:43:12;;;;;;;18.73;4.88;;;22.30;86.50;;;;;;5050958;28;20067;-81
2023/11/14 11:45:45;;;;;;;22.10;5.15;;;22.30;86.80;;;;;;5051792;28;20116;-78
2023/11/14 11:48:35;;;;;;;18.52;5.47;;;22.30;86.40;;;;;;5034071;28;20033;-77
2023/11/14 11:51:21;;;;;;;19.55;4.95;;;22.40;87.00;;;;;;5052444;28;20072;-77
2023/11/14 11:53:49;;;;;;;15.13;4.63;;;22.40;86.80;;;;;;5052045;28;20036;-76
2023/11/14 11:56:36;;;;;;;15.45;4.30;;;22.40;86.00;;;;;;5052363;28;20029;-78
2023/11/14 11:59:03;;;;;;;18.88;4.90;;;22.50;86.30;;;;;;5052012;28;20033;-78
2023/11/14 12:01:30;;;;;;;17.70;5.35;;;22.70;85.40;;;;;;5052157;28;20108;-78
2023/11/14 12:03:59;;;;;;;20.85;5.35;;;22.80;84.90;;;;;;5055226;28;20515;-78
2023/11/14 12:06:25;;;;;;;13.68;4.75;;;22.90;85.00;;;;;;5056171;28;20033;-76
2023/11/14 12:08:52;;;;;;;16.17;4.75;;;22.90;85.10;;;;;;5056365;28;20037;-74
2023/11/14 12:11:18;;;;;;;26.10;5.03;;;22.90;85.00;;;;;;5055961;28;20368;-74
2023/11/14 12:13:51;;;;;;;16.80;4.85;;;22.80;85.20;;;;;;5055834;28;20129;-76
2023/11/14 12:16:21;;;;;;;19.15;5.20;;;22.60;85.30;;;;;;5056097;28;20036;-75
2023/11/14 12:18:47;;;;;;;14.77;4.15;;;22.50;85.40;;;;;;5056459;28;20047;-76
2023/11/14 12:21:15;;;;;;;22.08;5.15;;;22.60;85.70;;;;;;5055926;28;20067;-73
2023/11/14 12:23:42;;;;;;;19.92;5.38;;;22.50;85.70;;;;;;5035541;28;20117;-75
2023/11/14 12:26:08;;;;;;;16.15;4.45;;;22.50;85.60;;;;;;5036008;28;20029;-74
2023/11/14 12:28:40;;;;;;;13.65;4.20;;;22.50;85.80;;;;;;5035650;28;20037;-75
2023/11/14 12:31:11;;;;;;;22.57;4.97;;;22.40;85.80;;;;;;5035704;28;20489;-74
2023/11/14 12:33:45;;;;;;;14.73;3.80;;;22.40;86.10;;;;;;5035727;28;20041;-75
2023/11/14 12:36:24;;;;;;;18.95;4.22;;;22.60;85.80;;;;;;5017523;28;20397;-76